Snow/Ice From: 24-10-2018 05:00 Until: 09:00 warning for: Snow/Ice Level: Yellow info button
suomi:
Liikennesää: Ajokeli muuttuu huonoksi aamulla tienpintojen jäätymisen vuoksi.

svenska:
Trafikvädret: Väglaget blir dåligt på morgonen p.g.a. tillfrysning av vägytor.

english:
Traffic weather warning: Bad road conditions are expected in the morning because of ice-covered roads. 


Thunder radar more information blitzortung!


Löydät sääaseman tiedot myös:

European Weather Network

Finland Weather Exchange

Weather Underground

AWEKAS



Weather Underground säähistoriasivu

Päivittäin yhteenveto Marraskuu 1, 2017 Yksiköt:  Metriset    Englantilaiset   Molemmat
« Edellinen Päivä
Seuraava Päivä »
Päivittäin Viikoittain Kuukausittain Vuosittain Mukautettu
  Korkea: Matala: Keskiarvo:
Lämpötila: -17.8 °C -3.2 °C -0.6 °C
Kastepiste: -17.8 °C -3.8 °C -1.1 °C
Kosteus: Humidity % 94 % 95 %
Tuulen nopeus: 0 km/h 0 km/h 0.2 km/h
Tuulenpuuska: 0 km/h - -
Tuuli:- - SSE
Ilmanpaine: 0 hPa 1000.2 hPa -
Sade: 0 mm    
Historical Graphs
 
 
Taulukkotiedot Marraskuu 1, 2017
Aika Lämpötila Kastepiste Ilmanpaine Tuuli Tuulen nopeus Tuulenpuuska Kosteus Sademäärä (tunneittain)
-17.8 °C -17.8 °C 0 hPa Calm     Humidity % 0 mm
00:00 -0.9 °C -1.8 °C 1003.6 hPa Calm     94 % 0 mm
00:15 -0.8 °C -1.7 °C 1003.6 hPa Calm   1.6 km/h 94 % 0 mm
00:30 -0.7 °C -1.6 °C 1003.6 hPa Calm     94 % 0 mm
00:45 -0.7 °C -1.4 °C 1003.6 hPa Calm     95 % 0 mm
01:00 -0.6 °C -1.3 °C 1003.3 hPa Calm     95 % 0 mm
01:15 -0.6 °C -1.3 °C 1003.3 hPa Calm     95 % 0 mm
01:30 -0.5 °C -1.2 °C 1003.3 hPa Calm     95 % 0 mm
01:45 -0.4 °C -1 °C 1003.3 hPa Calm     96 % 0 mm
02:00 -0.4 °C -0.9 °C 1003.3 hPa Calm   1.6 km/h 96 % 0 mm
02:15 -0.3 °C -0.9 °C 1002.9 hPa Calm     96 % 0 mm
02:30 -0.3 °C -0.9 °C 1002.9 hPa Calm   3.2 km/h 96 % 0 mm
02:45 -0.4 °C -0.9 °C 1002.9 hPa Calm     96 % 0 mm
03:00 -0.4 °C -0.9 °C 1002.6 hPa Calm     96 % 0 mm
03:15 -0.4 °C -0.9 °C 1002.6 hPa Calm   3.2 km/h 96 % 0 mm
03:30 -0.3 °C -0.9 °C 1002.6 hPa Calm     96 % 0 mm
03:45 -0.3 °C -0.8 °C 1002.6 hPa Calm   6.4 km/h 96 % 0 mm
04:00 -0.3 °C -0.7 °C 1002.6 hPa Calm   3.2 km/h 97 % 0 mm
04:15 -0.2 °C -0.6 °C 1002.3 hPa Calm     97 % 0 mm
04:30 -0.2 °C -0.6 °C 1002.3 hPa Calm     97 % 0 mm
04:45 -0.1 °C -0.5 °C 1002.3 hPa Calm     97 % 0 mm
05:00 -0.1 °C -0.5 °C 1002.3 hPa Calm     97 % 0 mm
05:30 -0.1 °C -0.5 °C 1002.3 hPa Calm   6.4 km/h 97 % 0 mm
05:45 0 °C -0.4 °C 1002.3 hPa Calm     97 % 0 mm
06:00 0 °C -0.4 °C 1002.3 hPa Calm   4.8 km/h 97 % 0 mm
06:15 0.1 °C -0.4 °C 1002.3 hPa Calm   3.2 km/h 97 % 0 mm
06:30 0.1 °C -0.4 °C 1002.3 hPa Calm     97 % 0 mm
06:45 0.1 °C -0.3 °C 1002.3 hPa Calm     97 % 0 mm
07:00 0.1 °C -0.3 °C 1002.3 hPa Calm     97 % 0 mm
07:15 0.1 °C -0.4 °C 1002.3 hPa Calm     97 % 0 mm
07:30 0.1 °C -0.4 °C 1002.3 hPa Calm   1.6 km/h 97 % 0 mm
07:45 0 °C -0.4 °C 1002.6 hPa Calm   3.2 km/h 97 % 0 mm
08:00 0.1 °C -0.4 °C 1002.6 hPa Calm   1.6 km/h 97 % 0 mm
08:15 0.1 °C -0.4 °C 1002.6 hPa Calm   6.4 km/h 97 % 0 mm
08:30 0.1 °C -0.4 °C 1002.6 hPa Calm   8 km/h 97 % 0 mm
08:45 0.1 °C -0.4 °C 1002.6 hPa Calm   6.4 km/h 97 % 0 mm
09:00 0.1 °C -0.4 °C 1002.9 hPa Calm   3.2 km/h 97 % 0 mm
09:15 0.1 °C -0.4 °C 1002.9 hPa Calm   1.6 km/h 97 % 0 mm
09:30 0.1 °C -0.4 °C 1002.9 hPa Calm   6.4 km/h 97 % 0 mm
09:45 0.1 °C -0.4 °C 1002.9 hPa Calm   6.4 km/h 97 % 0 mm
10:00 0.1 °C -0.3 °C 1003.3 hPa Calm   8 km/h 97 % 0 mm
10:15 0.2 °C -0.3 °C 1002.9 hPa Calm   3.2 km/h 97 % 0 mm
10:30 0.3 °C -0.1 °C 1002.9 hPa Calm   8 km/h 97 % 0 mm
10:45 0.3 °C -0.1 °C 1003.3 hPa Calm   8 km/h 97 % 0 mm
11:00 0.4 °C 0 °C 1003.3 hPa Calm   3.2 km/h 97 % 0 mm
11:15 0.5 °C 0.1 °C 1003.3 hPa SSE 1.6 km/h 8 km/h 97 % 0 mm
11:30 0.6 °C 0.1 °C 1002.9 hPa Calm   3.2 km/h 97 % 0 mm
11:45 0.6 °C 0.1 °C 1002.9 hPa Calm   4.8 km/h 97 % 0 mm
12:00 0.6 °C 0.1 °C 1003.3 hPa Calm   3.2 km/h 97 % 0 mm
12:15 0.6 °C 0.1 °C 1002.9 hPa South 1.6 km/h 8 km/h 97 % 0 mm
12:30 0.7 °C 0.2 °C 1002.9 hPa Calm   8 km/h 97 % 0 mm
12:45 0.7 °C 0.2 °C 1002.9 hPa South 1.6 km/h 6.4 km/h 96 % 0 mm
13:00 0.8 °C 0.3 °C 1002.9 hPa Calm   6.4 km/h 96 % 0 mm
13:15 0.9 °C 0.3 °C 1002.9 hPa Calm   8 km/h 96 % 0 mm
13:30 0.8 °C 0.3 °C 1002.9 hPa Calm   3.2 km/h 96 % 0 mm
13:45 0.8 °C 0.1 °C 1002.9 hPa Calm     95 % 0 mm
14:00 0.8 °C 0.1 °C 1002.9 hPa Calm   3.2 km/h 95 % 0 mm
14:15 0.7 °C 0.1 °C 1002.6 hPa Calm   3.2 km/h 96 % 0 mm
14:30 0.7 °C 0.1 °C 1002.6 hPa Calm   6.4 km/h 96 % 0 mm
14:45 0.6 °C 0 °C 1002.6 hPa Calm   3.2 km/h 96 % 0 mm
15:00 0.6 °C 0 °C 1002.6 hPa Calm   6.4 km/h 96 % 0 mm
15:15 0.6 °C 0 °C 1002.6 hPa Calm   1.6 km/h 96 % 0 mm
15:30 0.4 °C -0.2 °C 1002.6 hPa Calm   8 km/h 96 % 0 mm
15:45 0.3 °C -0.4 °C 1002.3 hPa Calm   8 km/h 95 % 0 mm
16:00 0.2 °C -0.4 °C 1002.3 hPa Calm   6.4 km/h 96 % 0 mm
16:15 0.1 °C -0.5 °C 1002.3 hPa Calm   3.2 km/h 96 % 0 mm
16:30 0 °C -0.6 °C 1002.3 hPa Calm   8 km/h 96 % 0 mm
16:45 -0.1 °C -0.6 °C 1002.3 hPa Calm   3.2 km/h 96 % 0 mm
17:00 -0.2 °C -0.7 °C 1002.3 hPa Calm   3.2 km/h 96 % 0 mm
17:15 -0.2 °C -0.8 °C 1001.9 hPa Calm   6.4 km/h 96 % 0 mm
17:30 -0.3 °C -0.8 °C 1001.9 hPa Calm   3.2 km/h 96 % 0 mm
17:45 -0.3 °C -0.8 °C 1001.9 hPa Calm   8 km/h 96 % 0 mm
18:00 -0.3 °C -0.9 °C 1001.9 hPa South 1.6 km/h 8 km/h 96 % 0 mm
18:15 -0.3 °C -0.9 °C 1001.6 hPa Calm   8 km/h 96 % 0 mm
18:30 -0.4 °C -0.9 °C 1001.6 hPa Calm   6.4 km/h 96 % 0 mm
18:45 -0.5 °C -1.1 °C 1001.6 hPa Calm   3.2 km/h 96 % 0 mm
19:00 -0.5 °C -1.1 °C 1001.6 hPa Calm   6.4 km/h 96 % 0 mm
19:15 -0.6 °C -1.2 °C 1001.6 hPa East 1.6 km/h 8 km/h 96 % 0 mm
19:30 -0.8 °C -1.5 °C 1001.6 hPa ESE 1.6 km/h 9.7 km/h 95 % 0 mm
19:45 -0.9 °C -1.6 °C 1001.2 hPa Calm   6.4 km/h 95 % 0 mm
20:00 -0.9 °C -1.4 °C 1001.2 hPa Calm   8 km/h 96 % 0 mm
20:15 -1.1 °C -1.8 °C 1000.9 hPa Calm     95 % 0 mm
20:30 -1.3 °C -2 °C 1000.9 hPa Calm     95 % 0 mm
20:45 -1.6 °C -2.3 °C 1000.9 hPa Calm     95 % 0 mm
21:00 -1.8 °C -2.5 °C 1000.9 hPa Calm     95 % 0 mm
21:15 -2 °C -2.7 °C 1000.6 hPa Calm     95 % 0 mm
21:30 -2.2 °C -2.8 °C 1000.6 hPa Calm     96 % 0 mm
21:45 -2.3 °C -2.9 °C 1000.6 hPa Calm   3.2 km/h 96 % 0 mm
22:00 -2.5 °C -3.1 °C 1000.2 hPa Calm     96 % 0 mm
22:15 -2.6 °C -3.2 °C 1000.2 hPa Calm     96 % 0 mm
22:30 -2.7 °C -3.3 °C 1000.2 hPa Calm     96 % 0 mm
22:45 -2.9 °C -3.4 °C 1000.2 hPa Calm     96 % 0 mm
23:00 -3 °C -3.5 °C 1000.2 hPa Calm     96 % 0 mm
23:15 -3.1 °C -3.6 °C 1000.2 hPa Calm     96 % 0 mm
23:30 -3.2 °C -3.7 °C 1000.2 hPa Calm     96 % 0 mm
23:45 -3.2 °C -3.8 °C 1000.2 hPa Calm     96 % 0 mm
Esan sääasema
Terveisin Weather Underground - 2.75 mb

Alkuperäinen skripti  Jim McMurry - jmcmurry@mwt.net Sovitettu myös templatelle  Wim van der Kuil - Leuven-Template.eu

Laitteet joita käytämme:

Sääasema
Davis VP2

Sääasemaohjelma
Cumulus

Sääaseman tietokone
Asus EeePC

Palveluntarjoaja
Suncomet

Davis VP2

Cumulus

Asus EeePC

Suncomet